createdAt,value
2018-12-22T00:01:00.448Z,11.61
2018-12-22T00:03:33.545Z,11.66
2018-12-22T00:06:14.262Z,11.59
2018-12-22T00:08:46.498Z,11.70
2018-12-22T00:11:24.226Z,11.70
2018-12-22T00:14:03.521Z,11.76
2018-12-22T00:16:37.474Z,11.72
2018-12-22T00:19:08.657Z,11.55
2018-12-22T00:21:49.311Z,11.57
2018-12-22T00:24:21.267Z,11.59
2018-12-22T00:26:59.333Z,11.58
2018-12-22T00:29:31.699Z,11.48
2018-12-22T00:35:03.794Z,11.57
2018-12-22T00:37:34.854Z,11.51
2018-12-22T00:40:06.779Z,11.58
2018-12-22T00:42:38.961Z,11.58
2018-12-22T00:45:16.760Z,11.65
2018-12-22T00:47:48.131Z,11.57
2018-12-22T00:50:26.845Z,11.64
2018-12-22T00:53:04.851Z,11.47
2018-12-22T00:55:43.004Z,11.63
2018-12-22T00:58:16.920Z,11.52
2018-12-22T01:00:55.761Z,11.48
2018-12-22T01:03:30.606Z,11.57
2018-12-22T01:06:02.200Z,11.62
2018-12-22T01:08:32.218Z,11.61
2018-12-22T01:11:10.068Z,11.59
2018-12-22T01:13:45.274Z,11.50
2018-12-22T01:16:25.930Z,11.52
2018-12-22T01:19:01.071Z,11.31
2018-12-22T01:21:35.094Z,11.30
2018-12-22T01:24:05.554Z,11.46
2018-12-22T01:26:36.616Z,11.30
2018-12-22T01:29:07.838Z,11.50
2018-12-22T01:31:38.956Z,11.45
2018-12-22T01:34:13.676Z,11.40
2018-12-22T01:36:52.783Z,11.04
2018-12-22T01:39:23.794Z,10.94
2018-12-22T01:42:01.702Z,11.00
2018-12-22T01:44:39.748Z,11.07
2018-12-22T01:47:13.923Z,11.12
2018-12-22T01:49:52.794Z,10.92
2018-12-22T01:52:24.062Z,10.95
2018-12-22T01:54:55.244Z,10.95
2018-12-22T01:57:32.971Z,11.11
2018-12-22T02:00:12.920Z,11.01
2018-12-22T02:02:44.446Z,11.06
2018-12-22T02:05:23.044Z,10.92
2018-12-22T02:07:54.307Z,10.89
2018-12-22T02:10:33.075Z,11.06
2018-12-22T02:13:13.138Z,10.94
2018-12-22T02:15:45.449Z,11.11
2018-12-22T02:18:19.515Z,10.91
2018-12-22T02:20:50.479Z,11.18
2018-12-22T02:23:32.246Z,11.05
2018-12-22T02:26:12.594Z,10.94
2018-12-22T02:28:46.157Z,11.03
2018-12-22T02:31:25.037Z,10.97
2018-12-22T02:34:04.171Z,10.81
2018-12-22T02:36:42.990Z,10.89
2018-12-22T02:39:15.423Z,10.63
2018-12-22T02:41:55.328Z,10.61
2018-12-22T02:44:34.172Z,10.85
2018-12-22T02:47:13.496Z,10.70
2018-12-22T02:49:52.500Z,10.63
2018-12-22T02:52:32.538Z,10.63
2018-12-22T02:55:07.790Z,10.67
2018-12-22T02:57:40.191Z,10.65
2018-12-22T03:00:11.315Z,10.59
2018-12-22T03:02:42.247Z,10.69
2018-12-22T03:08:10.772Z,10.67
2018-12-22T03:10:44.791Z,10.58
2018-12-22T03:13:23.786Z,10.62
2018-12-22T03:16:11.925Z,10.62
2018-12-22T03:18:46.868Z,10.56
2018-12-22T03:24:17.960Z,10.55
2018-12-22T03:26:50.156Z,10.65
2018-12-22T03:29:22.198Z,10.60
2018-12-22T03:32:00.163Z,10.68
2018-12-22T03:34:40.103Z,10.59
2018-12-22T03:37:19.205Z,10.61
2018-12-22T03:40:04.622Z,10.64
2018-12-22T03:42:43.954Z,10.73
2018-12-22T03:45:23.922Z,10.36
2018-12-22T03:48:03.971Z,10.65
2018-12-22T03:50:45.817Z,10.48
2018-12-22T03:56:14.384Z,10.58
2018-12-22T03:58:50.330Z,10.57
2018-12-22T04:01:26.267Z,10.46
2018-12-22T04:04:06.232Z,10.55
2018-12-22T04:06:52.007Z,10.60
2018-12-22T04:09:28.489Z,10.42
2018-12-22T04:12:07.610Z,10.55
2018-12-22T04:14:47.361Z,10.46
2018-12-22T04:17:26.297Z,10.47
2018-12-22T04:20:06.965Z,10.57
2018-12-22T04:22:38.535Z,10.58
2018-12-22T04:25:10.910Z,10.54
2018-12-22T04:27:42.864Z,10.82
2018-12-22T04:30:22.778Z,10.71
2018-12-22T04:33:01.923Z,11.72
2018-12-22T04:35:40.068Z,12.82
2018-12-22T04:38:12.326Z,12.55
2018-12-22T04:40:52.230Z,13.29
2018-12-22T04:49:10.470Z,11.11
2018-12-22T04:51:49.481Z,10.88
2018-12-22T04:54:29.514Z,10.95
2018-12-22T04:57:07.444Z,10.84
2018-12-22T04:59:43.197Z,10.88
2018-12-22T05:02:16.640Z,10.76
2018-12-22T05:04:56.483Z,10.67
2018-12-22T05:07:34.406Z,10.73
2018-12-22T05:10:12.415Z,10.83
2018-12-22T05:12:43.642Z,10.67
2018-12-22T05:15:21.501Z,10.66
2018-12-22T05:17:52.623Z,10.82
2018-12-22T05:20:23.778Z,10.83
2018-12-22T05:23:01.710Z,10.74
2018-12-22T05:25:39.771Z,10.91
2018-12-22T05:28:11.046Z,10.83
2018-12-22T05:30:48.906Z,10.95
2018-12-22T05:33:26.816Z,10.92
2018-12-22T05:36:04.744Z,10.96
2018-12-22T05:38:36.113Z,10.87
2018-12-22T05:41:15.097Z,11.01
2018-12-22T05:43:49.422Z,10.96
2018-12-22T05:46:27.374Z,10.93
2018-12-22T05:49:01.398Z,10.99
2018-12-22T05:51:39.443Z,10.84
2018-12-22T05:54:17.375Z,10.87
2018-12-22T05:56:55.376Z,10.89
2018-12-22T06:02:19.835Z,10.82
2018-12-22T06:05:00.392Z,11.05
2018-12-22T06:07:38.373Z,10.96
2018-12-22T06:10:12.530Z,11.08
2018-12-22T06:12:51.352Z,11.06
2018-12-22T06:15:29.256Z,11.01
2018-12-22T06:18:00.517Z,10.96
2018-12-22T06:20:32.048Z,11.00
2018-12-22T06:23:01.984Z,11.13
2018-12-22T06:25:33.123Z,10.95
2018-12-22T06:28:06.350Z,10.83
2018-12-22T06:30:44.161Z,10.86
2018-12-22T06:33:22.198Z,10.94
2018-12-22T06:36:00.311Z,10.84
2018-12-22T06:38:33.542Z,10.66
2018-12-22T06:41:12.200Z,10.68
2018-12-22T06:43:44.580Z,10.76
2018-12-22T06:46:14.539Z,10.70
2018-12-22T06:48:46.569Z,10.66
2018-12-22T06:51:24.398Z,10.51
2018-12-22T06:54:00.616Z,10.42
2018-12-22T06:56:35.492Z,10.58
2018-12-22T06:59:14.387Z,10.65
2018-12-22T07:01:52.484Z,10.52
2018-12-22T07:04:30.532Z,10.64
2018-12-22T07:07:08.368Z,10.73
2018-12-22T07:09:40.611Z,10.57
2018-12-22T07:12:11.667Z,10.54
2018-12-22T07:14:50.391Z,10.63
2018-12-22T07:17:28.253Z,10.61
2018-12-22T07:20:10.086Z,10.62
2018-12-22T07:22:39.792Z,10.44
2018-12-22T07:25:18.379Z,10.70
2018-12-22T07:27:49.634Z,10.57
2018-12-22T07:30:28.441Z,10.65
2018-12-22T07:33:06.250Z,10.60
2018-12-22T07:35:45.365Z,10.52
2018-12-22T07:38:14.910Z,10.67
2018-12-22T07:40:53.682Z,10.72
2018-12-22T07:43:31.714Z,10.83
2018-12-22T07:46:10.797Z,10.59
2018-12-22T07:48:42.473Z,10.64
2018-12-22T07:51:20.792Z,10.55
2018-12-22T07:53:58.838Z,10.51
2018-12-22T07:56:32.872Z,10.58
2018-12-22T07:59:04.229Z,10.72
2018-12-22T08:01:42.863Z,10.64
2018-12-22T08:04:16.895Z,10.70
2018-12-22T08:06:50.824Z,10.91
2018-12-22T08:09:21.973Z,10.71
2018-12-22T08:11:59.797Z,10.64
2018-12-22T08:14:37.727Z,10.56
2018-12-22T08:17:11.697Z,10.75
2018-12-22T08:19:47.566Z,10.78
2018-12-22T08:22:25.574Z,10.68
2018-12-22T08:24:59.554Z,10.80
2018-12-22T08:27:38.483Z,10.76
2018-12-22T08:30:16.338Z,10.61
2018-12-22T08:32:50.349Z,10.75
2018-12-22T08:35:28.370Z,10.62
2018-12-22T08:38:00.804Z,10.72
2018-12-22T08:40:32.663Z,10.66
2018-12-22T08:43:10.531Z,10.61
2018-12-22T08:45:41.930Z,10.84
2018-12-22T08:48:13.897Z,10.71
2018-12-22T08:50:52.626Z,10.90
2018-12-22T08:53:26.907Z,10.78
2018-12-22T08:56:08.236Z,10.86
2018-12-22T08:58:39.715Z,10.69
2018-12-22T09:01:18.491Z,10.71
2018-12-22T09:03:52.578Z,10.76
2018-12-22T09:06:30.703Z,10.94
2018-12-22T09:11:54.944Z,10.89
2018-12-22T09:17:19.300Z,10.88
2018-12-22T09:19:59.807Z,10.98
2018-12-22T09:22:39.942Z,10.84
2018-12-22T09:25:18.055Z,10.97
2018-12-22T09:27:52.997Z,10.85
2018-12-22T09:30:30.818Z,11.07
2018-12-22T09:33:06.828Z,11.02
2018-12-22T09:35:44.670Z,10.92
2018-12-22T09:38:16.863Z,10.71
2018-12-22T09:40:54.581Z,10.74
2018-12-22T09:43:32.610Z,10.94
2018-12-22T09:46:07.789Z,11.00
2018-12-22T09:48:38.928Z,10.96
2018-12-22T09:51:10.151Z,10.96
2018-12-22T09:53:44.079Z,10.97
2018-12-22T09:56:22.703Z,11.00
2018-12-22T09:58:55.173Z,11.17
2018-12-22T10:01:33.626Z,10.80
2018-12-22T10:04:12.593Z,11.03
2018-12-22T10:06:43.865Z,11.21
2018-12-22T10:09:14.909Z,11.01
2018-12-22T10:11:45.971Z,11.17
2018-12-22T10:14:24.580Z,11.37
2018-12-22T10:17:02.847Z,11.41
2018-12-22T10:19:37.013Z,11.19
2018-12-22T10:22:11.057Z,11.28
2018-12-22T10:24:48.930Z,11.34
2018-12-22T10:27:26.938Z,11.54
2018-12-22T10:30:06.469Z,11.25
2018-12-22T10:32:45.085Z,11.19
2018-12-22T10:35:25.560Z,11.29
2018-12-22T10:37:57.498Z,11.43
2018-12-22T10:40:36.601Z,11.58
2018-12-22T10:43:14.501Z,11.17
2018-12-22T10:45:52.221Z,11.26
2018-12-22T10:48:23.385Z,11.41
2018-12-22T10:51:01.210Z,11.42
2018-12-22T10:53:39.207Z,11.49
2018-12-22T10:56:17.425Z,11.39
2018-12-22T10:58:48.782Z,11.52
2018-12-22T11:01:26.340Z,11.37
2018-12-22T11:04:02.844Z,11.41
2018-12-22T11:06:40.980Z,11.50
2018-12-22T11:09:12.503Z,11.60
2018-12-22T11:11:50.898Z,11.44
2018-12-22T11:14:28.934Z,11.34
2018-12-22T11:17:08.213Z,11.44
2018-12-22T11:19:39.475Z,11.52
2018-12-22T11:22:17.210Z,11.63
2018-12-22T11:24:48.424Z,11.55
2018-12-22T11:27:26.173Z,11.71
2018-12-22T11:30:06.365Z,11.66
2018-12-22T11:32:45.667Z,11.72
2018-12-22T11:35:23.785Z,11.72
2018-12-22T11:37:58.711Z,11.59
2018-12-22T11:40:36.496Z,11.62
2018-12-22T11:43:15.440Z,11.43
2018-12-22T11:45:53.466Z,11.43
2018-12-22T11:48:24.603Z,11.47
2018-12-22T11:50:58.552Z,11.51
2018-12-22T11:53:36.479Z,11.40
2018-12-22T11:56:09.900Z,11.61
2018-12-22T11:58:41.866Z,11.55
2018-12-22T12:01:27.546Z,11.61
2018-12-22T12:04:01.955Z,11.66
2018-12-22T12:06:39.955Z,11.83
2018-12-22T12:09:12.343Z,11.75
2018-12-22T12:11:50.041Z,11.80
2018-12-22T12:14:28.240Z,11.80
2018-12-22T12:17:13.885Z,11.97
2018-12-22T12:19:43.522Z,11.87
2018-12-22T12:22:18.662Z,11.79
2018-12-22T12:24:56.572Z,11.97
2018-12-22T12:27:35.743Z,11.97
2018-12-22T12:30:08.975Z,11.90
2018-12-22T12:32:49.675Z,11.79
2018-12-22T12:35:28.066Z,11.84
2018-12-22T12:38:03.207Z,11.80
2018-12-22T12:40:41.143Z,11.90
2018-12-22T12:43:19.245Z,11.82
2018-12-22T12:45:59.315Z,11.76
2018-12-22T12:48:30.709Z,11.88
2018-12-22T12:51:11.178Z,11.78
2018-12-22T12:53:42.943Z,11.87
2018-12-22T12:56:21.596Z,11.78
2018-12-22T12:58:55.758Z,11.66
2018-12-22T13:01:27.976Z,11.62
2018-12-22T13:03:57.961Z,11.65
2018-12-22T13:09:22.008Z,11.51
2018-12-22T13:12:00.783Z,11.57
2018-12-22T13:14:34.920Z,11.33
2018-12-22T13:17:10.900Z,11.18
2018-12-22T13:19:42.819Z,11.15
2018-12-22T13:22:16.755Z,11.14
2018-12-22T13:24:55.404Z,10.92
2018-12-22T13:27:33.526Z,10.88
2018-12-22T13:30:10.159Z,10.87
2018-12-22T13:32:40.908Z,10.99
2018-12-22T13:35:11.221Z,10.87
2018-12-22T13:37:40.847Z,10.98
2018-12-22T13:40:19.611Z,11.00
2018-12-22T13:42:53.946Z,11.04
2018-12-22T13:50:26.210Z,10.93
2018-12-22T13:52:56.160Z,11.04
2018-12-22T13:55:34.014Z,11.03
2018-12-22T13:58:05.234Z,10.92
2018-12-22T14:00:45.846Z,11.17
2018-12-22T14:03:24.199Z,10.95
2018-12-22T14:06:02.003Z,11.06
2018-12-22T14:08:36.097Z,11.01
2018-12-22T14:11:15.928Z,10.91
2018-12-22T14:13:50.124Z,10.98
2018-12-22T14:16:30.462Z,10.91
2018-12-22T14:19:01.605Z,10.78
2018-12-22T14:21:41.607Z,10.98
2018-12-22T14:24:19.897Z,11.07
2018-12-22T14:26:58.534Z,11.14
2018-12-22T14:29:29.894Z,10.80
2018-12-22T14:32:03.883Z,11.01
2018-12-22T14:34:38.162Z,10.99
2018-12-22T14:37:09.410Z,10.92
2018-12-22T14:39:41.245Z,10.80
2018-12-22T14:45:13.274Z,10.87
2018-12-22T14:47:45.510Z,10.86
2018-12-22T14:50:23.358Z,10.71
2018-12-22T14:52:58.639Z,10.89
2018-12-22T14:55:29.899Z,10.88
2018-12-22T14:58:02.112Z,11.08
2018-12-22T15:00:41.983Z,10.91
2018-12-22T15:03:19.841Z,11.16
2018-12-22T15:05:51.220Z,11.05
2018-12-22T15:08:23.187Z,10.87
2018-12-22T15:10:55.158Z,11.18
2018-12-22T15:13:33.794Z,11.02
2018-12-22T15:16:07.813Z,11.01
2018-12-22T15:18:38.962Z,11.11
2018-12-22T15:21:16.699Z,11.10
2018-12-22T15:23:47.858Z,10.95
2018-12-22T15:26:21.667Z,10.73
2018-12-22T15:28:55.576Z,11.04
2018-12-22T15:31:27.976Z,11.06
2018-12-22T15:33:59.840Z,10.99
2018-12-22T15:36:37.686Z,11.15
2018-12-22T15:39:09.072Z,10.78
2018-12-22T15:41:47.717Z,10.77
2018-12-22T15:44:26.703Z,10.67
2018-12-22T15:47:00.741Z,10.35
2018-12-22T15:49:34.649Z,10.27
2018-12-22T15:52:08.613Z,10.64
2018-12-22T15:54:46.364Z,10.36
2018-12-22T15:57:17.719Z,10.24
2018-12-22T15:59:48.882Z,10.40
2018-12-22T16:02:26.619Z,10.53
2018-12-22T16:05:06.394Z,10.71
2018-12-22T16:07:41.360Z,10.57
2018-12-22T16:10:19.791Z,10.48
2018-12-22T16:12:58.754Z,10.72
2018-12-22T16:15:36.903Z,10.71
2018-12-22T16:18:09.473Z,10.60
2018-12-22T16:20:40.517Z,10.68
2018-12-22T16:23:12.602Z,10.88
2018-12-22T16:25:51.281Z,11.00
2018-12-22T16:28:25.390Z,10.96
2018-12-22T16:31:03.234Z,10.84
2018-12-22T16:33:37.390Z,10.93
2018-12-22T16:36:11.730Z,10.82
2018-12-22T16:38:45.571Z,10.83
2018-12-22T16:41:17.828Z,10.60
2018-12-22T16:43:56.338Z,10.72
2018-12-22T16:46:27.788Z,10.54
2018-12-22T16:48:59.745Z,10.56
2018-12-22T16:51:32.054Z,10.42
2018-12-22T16:54:13.419Z,10.65
2018-12-22T16:56:54.082Z,10.69
2018-12-22T16:59:25.351Z,10.57
2018-12-22T17:02:04.978Z,10.76
2018-12-22T17:04:43.050Z,10.53
2018-12-22T17:07:22.178Z,10.34
2018-12-22T17:09:53.611Z,10.47
2018-12-22T17:12:33.284Z,10.72
2018-12-22T17:15:11.101Z,10.45
2018-12-22T17:17:42.316Z,10.49
2018-12-22T17:20:21.139Z,10.58
2018-12-22T17:26:14.188Z,10.30
2018-12-22T17:28:43.854Z,10.50
2018-12-22T17:31:14.910Z,10.44
2018-12-22T17:33:52.790Z,10.40
2018-12-22T17:36:27.029Z,10.30
2018-12-22T17:38:58.100Z,10.46
2018-12-22T17:44:30.535Z,10.25
2018-12-22T17:47:08.457Z,10.47
2018-12-22T17:49:40.527Z,10.25
2018-12-22T17:52:19.109Z,10.11
2018-12-22T17:54:58.154Z,10.27
2018-12-22T17:57:39.413Z,10.14
2018-12-22T18:00:26.903Z,10.07
2018-12-22T18:03:06.115Z,10.18
2018-12-22T18:05:46.541Z,10.26
2018-12-22T18:08:18.126Z,10.58
2018-12-22T18:10:55.848Z,10.56
2018-12-22T18:13:33.752Z,10.57
2018-12-22T18:16:11.985Z,10.50
2018-12-22T18:18:44.112Z,10.26
2018-12-22T18:21:22.071Z,10.21
2018-12-22T18:24:09.370Z,10.22
2018-12-22T18:26:47.290Z,10.03
2018-12-22T18:29:21.320Z,10.05
2018-12-22T18:31:53.255Z,10.29
2018-12-22T18:34:24.321Z,10.28
2018-12-22T18:36:57.328Z,10.30
2018-12-22T18:39:28.563Z,10.32
2018-12-22T18:42:09.131Z,10.25
2018-12-22T18:44:41.794Z,10.27
2018-12-22T18:47:12.785Z,10.26
2018-12-22T18:49:45.828Z,10.30
2018-12-22T18:52:24.551Z,10.18
2018-12-22T18:55:04.298Z,10.16
2018-12-22T18:57:42.734Z,10.42
2018-12-22T19:00:21.508Z,10.02
2018-12-22T19:02:59.818Z,10.18
2018-12-22T19:05:38.010Z,10.09
2018-12-22T19:08:12.126Z,9.96
2018-12-22T19:10:46.018Z,10.15
2018-12-22T19:13:23.739Z,9.92
2018-12-22T19:16:01.458Z,10.13
2018-12-22T19:18:32.734Z,9.94
2018-12-22T19:21:03.882Z,10.07
2018-12-22T19:23:49.348Z,10.19
2018-12-22T19:26:21.215Z,10.24
2018-12-22T19:28:52.275Z,10.19
2018-12-22T19:31:30.797Z,9.83
2018-12-22T19:34:09.787Z,9.97
2018-12-22T19:36:43.879Z,10.07
2018-12-22T19:39:14.792Z,10.16
2018-12-22T19:41:46.053Z,10.05
2018-12-22T19:44:20.398Z,10.09
2018-12-22T19:46:58.326Z,10.03
2018-12-22T19:49:32.370Z,10.13
2018-12-22T19:52:11.310Z,9.99
2018-12-22T19:54:51.751Z,10.24
2018-12-22T19:57:30.218Z,9.84
2018-12-22T20:00:07.990Z,9.86
2018-12-22T20:02:49.704Z,9.82
2018-12-22T20:05:29.965Z,9.87
2018-12-22T20:08:02.052Z,10.02
2018-12-22T20:10:33.198Z,9.77
2018-12-22T20:13:03.181Z,9.94
2018-12-22T20:15:37.144Z,9.91
2018-12-22T20:18:10.096Z,9.82
2018-12-22T20:20:47.881Z,9.81
2018-12-22T20:23:19.145Z,10.02
2018-12-22T20:25:51.011Z,10.10
2018-12-22T20:28:25.634Z,9.89
2018-12-22T20:31:03.930Z,9.78
2018-12-22T20:33:36.237Z,9.87
2018-12-22T20:36:15.328Z,10.06
2018-12-22T20:38:49.003Z,9.62
2018-12-22T20:41:18.889Z,9.68
2018-12-22T20:43:57.498Z,9.76
2018-12-22T20:46:37.933Z,10.06
2018-12-22T20:49:09.762Z,9.93
2018-12-22T20:51:49.549Z,9.97
2018-12-22T20:54:27.533Z,9.98
2018-12-22T20:56:58.678Z,9.80
2018-12-22T20:59:29.949Z,10.01
2018-12-22T21:02:08.553Z,9.81
2018-12-22T21:04:46.544Z,10.00
2018-12-22T21:07:20.676Z,10.15
2018-12-22T21:09:53.140Z,9.81
2018-12-22T21:12:31.203Z,10.05
2018-12-22T21:17:55.661Z,9.81
2018-12-22T21:23:18.470Z,9.61
2018-12-22T21:25:58.053Z,9.48
2018-12-22T21:28:32.096Z,9.60
2018-12-22T21:31:03.037Z,9.66
2018-12-22T21:33:32.786Z,9.48
2018-12-22T21:36:11.842Z,9.72
2018-12-22T21:38:43.093Z,9.70
2018-12-22T21:41:14.096Z,9.67
2018-12-22T21:43:51.834Z,9.69
2018-12-22T21:46:31.929Z,9.60
2018-12-22T21:49:03.183Z,9.67
2018-12-22T21:51:43.809Z,9.93
2018-12-22T21:54:15.142Z,9.57
2018-12-22T21:56:49.082Z,9.75
2018-12-22T21:59:20.252Z,9.53
2018-12-22T22:01:58.051Z,9.66
2018-12-22T22:04:37.103Z,9.47
2018-12-22T22:07:18.753Z,9.56
2018-12-22T22:09:50.282Z,9.56
2018-12-22T22:12:24.125Z,9.82
2018-12-22T22:15:03.775Z,9.43
2018-12-22T22:17:41.747Z,9.49
2018-12-22T22:20:19.694Z,9.52
2018-12-22T22:22:57.488Z,9.47
2018-12-22T22:25:35.503Z,9.69
2018-12-22T22:28:06.977Z,9.60
2018-12-22T22:30:39.081Z,9.71
2018-12-22T22:33:20.227Z,9.49
2018-12-22T22:35:58.728Z,9.57
2018-12-22T22:38:30.723Z,9.65
2018-12-22T22:41:02.593Z,9.70
2018-12-22T22:43:32.431Z,9.69
2018-12-22T22:46:10.175Z,9.54
2018-12-22T22:48:44.114Z,9.61
2018-12-22T22:51:18.126Z,9.87
2018-12-22T22:53:56.827Z,9.68
2018-12-22T22:56:28.873Z,9.79
2018-12-22T22:59:00.557Z,9.51
2018-12-22T23:01:38.743Z,9.64
2018-12-22T23:04:10.128Z,9.66
2018-12-22T23:06:48.072Z,9.75
2018-12-22T23:09:19.135Z,9.84
2018-12-22T23:11:51.136Z,9.70
2018-12-22T23:14:29.797Z,9.67
2018-12-22T23:17:07.852Z,9.64
2018-12-22T23:19:39.938Z,9.58
2018-12-22T23:22:18.608Z,9.86
2018-12-22T23:24:51.330Z,9.85
2018-12-22T23:27:29.228Z,9.62
2018-12-22T23:30:00.610Z,9.46
2018-12-22T23:32:38.432Z,9.72
2018-12-22T23:35:16.242Z,9.53
2018-12-22T23:37:48.670Z,9.72
2018-12-22T23:40:19.811Z,9.88
2018-12-22T23:42:59.471Z,9.82
2018-12-22T23:45:34.266Z,9.84
2018-12-22T23:48:09.046Z,9.88
2018-12-22T23:50:47.901Z,9.80
2018-12-22T23:53:17.810Z,9.86
2018-12-22T23:55:48.915Z,9.89
2018-12-22T23:58:20.718Z,9.81
